createdAt,value
2023-04-29T00:01:44.024Z,13.49
2023-04-29T00:04:11.717Z,13.89
2023-04-29T00:06:38.993Z,14.27
2023-04-29T00:09:08.539Z,13.45
2023-04-29T00:11:35.959Z,13.92
2023-04-29T00:14:03.326Z,14.07
2023-04-29T00:16:30.463Z,14.23
2023-04-29T00:18:57.910Z,14.34
2023-04-29T00:21:27.416Z,14.01
2023-04-29T00:23:54.561Z,14.42
2023-04-29T00:26:21.974Z,14.56
2023-04-29T00:28:49.270Z,14.26
2023-04-29T00:31:16.527Z,14.09
2023-04-29T00:33:44.038Z,13.90
2023-04-29T00:36:11.252Z,13.82
2023-04-29T00:38:38.456Z,13.75
2023-04-29T00:41:05.931Z,13.77
2023-04-29T00:43:33.039Z,13.70
2023-04-29T00:46:00.252Z,13.72
2023-04-29T00:48:27.666Z,13.85
2023-04-29T00:50:54.834Z,13.90
2023-04-29T00:53:23.253Z,14.22
2023-04-29T00:55:51.739Z,14.26
2023-04-29T00:58:19.607Z,14.00
2023-04-29T01:00:47.109Z,14.09
2023-04-29T01:03:15.118Z,14.28
2023-04-29T01:05:42.653Z,14.62
2023-04-29T01:08:17.882Z,14.19
2023-04-29T01:10:49.837Z,14.17
2023-04-29T01:13:18.058Z,14.38
2023-04-29T01:16:03.822Z,14.12
2023-04-29T01:18:39.349Z,13.94
2023-04-29T01:21:06.930Z,13.92
2023-04-29T01:23:34.131Z,13.73
2023-04-29T01:26:01.412Z,13.68
2023-04-29T01:28:38.739Z,13.95
2023-04-29T01:31:09.657Z,14.24
2023-04-29T01:33:51.494Z,14.09
2023-04-29T01:36:37.376Z,14.07
2023-04-29T01:39:20.355Z,13.83
2023-04-29T01:41:52.219Z,13.72
2023-04-29T01:44:20.948Z,13.87
2023-04-29T01:46:52.465Z,13.67
2023-04-29T01:49:29.663Z,13.47
2023-04-29T01:51:56.997Z,13.43
2023-04-29T01:54:24.935Z,13.40
2023-04-29T01:56:52.294Z,13.51
2023-04-29T01:59:20.960Z,13.44
2023-04-29T02:01:51.621Z,13.31
2023-04-29T02:04:20.156Z,13.81
2023-04-29T02:06:47.350Z,13.71
2023-04-29T02:09:17.477Z,13.64
2023-04-29T02:11:48.663Z,13.67
2023-04-29T02:14:15.849Z,13.78
2023-04-29T02:16:46.468Z,13.47
2023-04-29T02:19:14.052Z,13.59
2023-04-29T02:21:41.349Z,13.46
2023-04-29T02:24:08.530Z,13.30
2023-04-29T02:26:38.203Z,13.37
2023-04-29T02:29:05.403Z,13.37
2023-04-29T02:31:32.805Z,13.26
2023-04-29T02:34:00.718Z,13.26
2023-04-29T02:36:28.519Z,13.25
2023-04-29T02:38:56.378Z,13.51
2023-04-29T02:41:25.732Z,13.34
2023-04-29T02:43:53.059Z,13.09
2023-04-29T02:46:20.482Z,12.92
2023-04-29T02:48:48.010Z,12.86
2023-04-29T02:51:15.441Z,12.67
2023-04-29T02:54:01.338Z,12.73
2023-04-29T02:56:29.709Z,12.96
2023-04-29T02:58:57.048Z,13.11
2023-04-29T03:01:24.414Z,12.73
2023-04-29T03:03:52.817Z,13.21
2023-04-29T03:06:20.450Z,13.13
2023-04-29T03:08:47.623Z,13.24
2023-04-29T03:11:15.129Z,13.10
2023-04-29T03:13:42.362Z,13.13
2023-04-29T03:16:09.925Z,12.87
2023-04-29T03:18:37.570Z,13.41
2023-04-29T03:21:05.330Z,13.37
2023-04-29T03:23:32.617Z,13.52
2023-04-29T03:26:01.418Z,13.49
2023-04-29T03:28:28.710Z,13.54
2023-04-29T03:30:56.977Z,13.51
2023-04-29T03:33:24.483Z,13.66
2023-04-29T03:35:51.872Z,13.87
2023-04-29T03:38:20.761Z,13.70
2023-04-29T03:40:48.348Z,13.66
2023-04-29T03:43:16.137Z,13.80
2023-04-29T03:45:43.492Z,13.72
2023-04-29T03:48:12.473Z,13.90
2023-04-29T03:50:40.211Z,14.03
2023-04-29T03:53:08.296Z,13.96
2023-04-29T03:55:35.874Z,14.12
2023-04-29T03:58:03.170Z,13.93
2023-04-29T04:00:31.367Z,13.81
2023-04-29T04:02:59.339Z,13.53
2023-04-29T04:05:27.005Z,13.69
2023-04-29T04:07:54.646Z,13.57
2023-04-29T04:10:24.347Z,13.51
2023-04-29T04:12:51.851Z,13.85
2023-04-29T04:15:19.097Z,13.70
2023-04-29T04:17:46.822Z,13.79
2023-04-29T04:20:14.091Z,13.84
2023-04-29T04:22:42.319Z,13.69
2023-04-29T04:25:10.370Z,13.68
2023-04-29T04:27:37.534Z,13.53
2023-04-29T04:30:05.714Z,13.66
2023-04-29T04:32:33.610Z,13.57
2023-04-29T04:35:00.831Z,13.56
2023-04-29T04:37:28.409Z,13.55
2023-04-29T04:39:56.363Z,13.65
2023-04-29T04:42:23.710Z,13.82
2023-04-29T04:44:51.550Z,13.82
2023-04-29T04:47:19.409Z,13.75
2023-04-29T04:49:46.984Z,13.99
2023-04-29T04:52:14.231Z,13.86
2023-04-29T04:54:45.054Z,13.86
2023-04-29T04:57:12.740Z,13.68
2023-04-29T04:59:39.944Z,13.63
2023-04-29T05:02:08.709Z,13.54
2023-04-29T05:04:35.877Z,13.41
2023-04-29T05:07:03.101Z,13.44
2023-04-29T05:09:31.366Z,13.29
2023-04-29T05:11:59.309Z,13.09
2023-04-29T05:14:27.934Z,13.17
2023-04-29T05:16:58.700Z,13.44
2023-04-29T05:19:26.962Z,13.40
2023-04-29T05:21:54.495Z,13.66
2023-04-29T05:24:22.036Z,13.47
2023-04-29T05:26:51.946Z,13.52
2023-04-29T05:29:19.745Z,13.70
2023-04-29T05:31:47.628Z,13.64
2023-04-29T05:34:15.171Z,14.00
2023-04-29T05:36:42.495Z,13.87
2023-04-29T05:39:10.045Z,14.03
2023-04-29T05:41:37.508Z,13.96
2023-04-29T05:44:06.363Z,14.29
2023-04-29T05:46:33.813Z,13.99
2023-04-29T05:49:00.950Z,14.04
2023-04-29T05:51:28.427Z,14.17
2023-04-29T05:53:55.951Z,14.16
2023-04-29T05:56:23.474Z,13.91
2023-04-29T05:58:50.715Z,14.29
2023-04-29T06:01:18.366Z,14.45
2023-04-29T06:03:46.150Z,14.35
2023-04-29T06:06:14.519Z,14.71
2023-04-29T06:08:41.781Z,14.84
2023-04-29T06:11:11.150Z,14.79
2023-04-29T06:13:38.356Z,14.84
2023-04-29T06:16:05.974Z,14.71
2023-04-29T06:18:33.691Z,14.72
2023-04-29T06:21:00.853Z,14.61
2023-04-29T06:23:28.096Z,14.65
2023-04-29T06:25:56.015Z,14.69
2023-04-29T06:28:24.188Z,14.69
2023-04-29T06:30:51.530Z,14.36
2023-04-29T06:33:19.348Z,14.88
2023-04-29T06:35:46.583Z,14.68
2023-04-29T06:38:13.880Z,14.93
2023-04-29T06:40:41.633Z,14.63
2023-04-29T06:43:09.045Z,14.66
2023-04-29T06:45:36.897Z,14.84
2023-04-29T06:48:04.691Z,14.94
2023-04-29T06:50:32.351Z,14.69
2023-04-29T06:52:59.536Z,14.90
2023-04-29T06:55:27.019Z,15.09
2023-04-29T06:57:54.278Z,14.85
2023-04-29T07:00:22.854Z,14.92
2023-04-29T07:02:50.324Z,15.08
2023-04-29T07:05:17.539Z,15.25
2023-04-29T07:07:44.759Z,15.37
2023-04-29T07:10:12.274Z,15.13
2023-04-29T07:12:39.731Z,15.25
2023-04-29T07:15:07.370Z,15.57
2023-04-29T07:17:34.901Z,15.18
2023-04-29T07:20:02.255Z,15.38
2023-04-29T07:22:29.525Z,15.20
2023-04-29T07:24:57.429Z,15.61
2023-04-29T07:27:25.095Z,15.59
2023-04-29T07:29:52.545Z,15.62
2023-04-29T07:32:20.336Z,16.04
2023-04-29T07:34:47.750Z,16.07
2023-04-29T07:37:15.759Z,16.06
2023-04-29T07:39:43.241Z,16.28
2023-04-29T07:42:10.973Z,16.38
2023-04-29T07:44:38.630Z,16.70
2023-04-29T07:47:06.220Z,17.37
2023-04-29T07:49:33.439Z,17.10
2023-04-29T07:52:00.641Z,18.08
2023-04-29T07:54:28.088Z,19.31
2023-04-29T07:56:57.608Z,20.32
2023-04-29T07:59:24.819Z,20.84
2023-04-29T08:01:52.918Z,21.15
2023-04-29T08:04:20.653Z,20.17
2023-04-29T08:06:48.958Z,20.70
2023-04-29T08:09:16.553Z,20.41
2023-04-29T08:11:44.911Z,20.27
2023-04-29T08:14:13.906Z,20.16
2023-04-29T08:16:41.296Z,19.62
2023-04-29T08:19:08.800Z,19.78
2023-04-29T08:21:36.009Z,19.33
2023-04-29T08:24:03.221Z,19.62
2023-04-29T08:26:30.677Z,19.59
2023-04-29T08:28:58.225Z,18.93
2023-04-29T08:31:26.053Z,19.51
2023-04-29T08:33:53.996Z,18.89
2023-04-29T08:36:21.336Z,19.60
2023-04-29T08:38:49.015Z,18.91
2023-04-29T08:41:16.956Z,18.28
2023-04-29T08:43:44.211Z,18.82
2023-04-29T08:46:11.458Z,17.96
2023-04-29T08:48:44.754Z,19.16
2023-04-29T08:51:13.587Z,19.49
2023-04-29T08:53:41.082Z,19.65
2023-04-29T08:56:20.600Z,20.06
2023-04-29T08:58:54.549Z,19.65
2023-04-29T09:01:24.204Z,18.78
2023-04-29T09:03:52.871Z,19.48
2023-04-29T09:06:21.592Z,19.58
2023-04-29T09:08:48.791Z,18.22
2023-04-29T09:11:16.211Z,17.31
2023-04-29T09:13:43.341Z,16.97
2023-04-29T09:16:11.876Z,16.27
2023-04-29T09:18:43.873Z,17.58
2023-04-29T09:21:18.078Z,18.31
2023-04-29T09:23:47.019Z,18.59
2023-04-29T09:26:14.505Z,18.93
2023-04-29T09:28:43.801Z,19.11
2023-04-29T09:31:12.075Z,19.19
2023-04-29T09:33:55.133Z,19.32
2023-04-29T09:36:42.211Z,19.67
2023-04-29T09:39:12.918Z,19.33
2023-04-29T09:41:40.469Z,18.85
2023-04-29T09:44:08.127Z,19.18
2023-04-29T09:46:36.813Z,19.68
2023-04-29T09:49:07.247Z,20.04
2023-04-29T09:51:34.581Z,20.06
2023-04-29T09:54:03.131Z,20.46
2023-04-29T09:56:34.695Z,20.62
2023-04-29T09:59:10.910Z,19.79
2023-04-29T10:01:39.453Z,20.21
2023-04-29T10:04:08.561Z,20.77
2023-04-29T10:06:35.775Z,21.04
2023-04-29T10:09:02.981Z,20.54
2023-04-29T10:11:31.508Z,19.91
2023-04-29T10:13:58.673Z,20.65
2023-04-29T10:16:33.097Z,20.95
2023-04-29T10:19:01.318Z,21.11
2023-04-29T10:21:32.228Z,20.09
2023-04-29T10:24:00.256Z,20.08
2023-04-29T10:26:28.832Z,19.22
2023-04-29T10:28:56.569Z,20.39
2023-04-29T10:31:25.834Z,20.18
2023-04-29T10:33:56.921Z,20.12
2023-04-29T10:36:24.410Z,20.03
2023-04-29T10:38:53.217Z,20.75
2023-04-29T10:41:21.203Z,20.71
2023-04-29T10:43:48.807Z,21.08
2023-04-29T10:46:28.845Z,21.85
2023-04-29T10:48:57.685Z,21.55
2023-04-29T10:51:28.905Z,21.48
2023-04-29T10:54:03.510Z,21.70
2023-04-29T10:56:37.974Z,21.45
2023-04-29T10:59:05.731Z,21.70
2023-04-29T11:01:52.146Z,21.76
2023-04-29T11:04:20.494Z,22.00
2023-04-29T11:06:48.497Z,23.05
2023-04-29T11:09:19.003Z,22.79
2023-04-29T11:11:54.026Z,22.87
2023-04-29T11:14:22.417Z,22.32
2023-04-29T11:17:12.892Z,22.56
2023-04-29T11:19:46.950Z,22.83
2023-04-29T11:22:24.092Z,23.40
2023-04-29T11:24:56.191Z,22.86
2023-04-29T11:27:27.819Z,23.12
2023-04-29T11:29:58.831Z,23.23
2023-04-29T11:32:52.980Z,22.70
2023-04-29T11:35:20.447Z,22.68
2023-04-29T11:37:47.892Z,22.72
2023-04-29T11:40:15.244Z,23.35
2023-04-29T11:42:44.098Z,22.97
2023-04-29T11:45:12.608Z,22.95
2023-04-29T11:47:43.016Z,22.35
2023-04-29T11:50:10.523Z,22.30
2023-04-29T11:52:38.980Z,21.35
2023-04-29T11:55:06.614Z,21.80
2023-04-29T11:57:33.808Z,21.22
2023-04-29T12:00:01.300Z,21.46
2023-04-29T12:02:32.049Z,21.94
2023-04-29T12:05:03.393Z,21.90
2023-04-29T12:07:31.131Z,21.91
2023-04-29T12:09:58.339Z,21.43
2023-04-29T12:12:27.582Z,21.94
2023-04-29T12:14:54.970Z,21.86
2023-04-29T12:17:22.374Z,22.16
2023-04-29T12:19:49.955Z,22.25
2023-04-29T12:22:17.171Z,23.17
2023-04-29T12:24:44.419Z,23.28
2023-04-29T12:27:11.831Z,22.92
2023-04-29T12:29:40.603Z,22.97
2023-04-29T12:32:08.558Z,22.90
2023-04-29T12:34:36.088Z,23.34
2023-04-29T12:37:03.564Z,22.84
2023-04-29T12:39:30.847Z,22.74
2023-04-29T12:41:58.572Z,22.89
2023-04-29T12:44:25.897Z,23.19
2023-04-29T12:46:58.457Z,23.20
2023-04-29T12:49:26.121Z,23.40
2023-04-29T12:51:53.283Z,23.72
2023-04-29T12:54:20.651Z,23.80
2023-04-29T12:56:49.917Z,23.35
2023-04-29T12:59:17.245Z,23.48
2023-04-29T13:01:44.455Z,23.45
2023-04-29T13:04:12.563Z,23.85
2023-04-29T13:06:41.859Z,24.21
2023-04-29T13:09:17.927Z,22.90
2023-04-29T13:11:46.522Z,22.30
2023-04-29T13:14:13.660Z,23.47
2023-04-29T13:16:41.185Z,23.07
2023-04-29T13:19:24.719Z,22.15
2023-04-29T13:21:55.913Z,22.10
2023-04-29T13:24:23.907Z,22.44
2023-04-29T13:26:52.591Z,23.17
2023-04-29T13:29:20.043Z,22.48
2023-04-29T13:31:47.604Z,23.13
2023-04-29T13:34:14.868Z,23.18
2023-04-29T13:36:42.110Z,23.16
2023-04-29T13:39:10.505Z,23.19
2023-04-29T13:41:37.694Z,23.50
2023-04-29T13:44:07.560Z,23.46
2023-04-29T13:46:47.597Z,23.44
2023-04-29T13:59:40.095Z,24.24
2023-04-29T14:04:33.505Z,24.77
2023-04-29T14:07:00.835Z,24.20
2023-04-29T14:09:28.032Z,23.92
2023-04-29T14:11:55.488Z,24.07
2023-04-29T14:14:22.635Z,24.62
2023-04-29T14:16:49.892Z,24.30
2023-04-29T14:19:17.362Z,22.91
2023-04-29T14:21:44.546Z,23.70
2023-04-29T14:24:11.705Z,23.57
2023-04-29T14:26:39.119Z,23.72
2023-04-29T14:29:06.314Z,23.83
2023-04-29T14:31:38.100Z,23.42
2023-04-29T14:34:05.738Z,23.09
2023-04-29T14:36:32.900Z,23.02
2023-04-29T14:39:00.809Z,23.22
2023-04-29T14:41:28.235Z,23.19
2023-04-29T14:43:55.421Z,23.09
2023-04-29T14:46:23.546Z,23.10
2023-04-29T14:48:50.966Z,23.08
2023-04-29T14:51:18.083Z,23.21
2023-04-29T14:53:45.238Z,23.20
2023-04-29T14:56:12.745Z,22.85
2023-04-29T14:58:40.598Z,22.61
2023-04-29T15:01:08.109Z,22.82
2023-04-29T15:03:43.581Z,22.82
2023-04-29T15:06:12.244Z,22.78
2023-04-29T15:08:39.969Z,22.66
2023-04-29T15:11:07.198Z,23.07
2023-04-29T15:13:34.423Z,22.97
2023-04-29T15:16:01.898Z,22.77
2023-04-29T15:18:29.082Z,23.28
2023-04-29T15:20:56.219Z,23.53
2023-04-29T15:23:23.681Z,23.17
2023-04-29T15:25:51.028Z,23.17
2023-04-29T15:28:18.178Z,23.16
2023-04-29T15:30:45.662Z,23.04
2023-04-29T15:33:12.827Z,22.93
2023-04-29T15:35:40.129Z,22.97
2023-04-29T15:38:07.854Z,22.94
2023-04-29T15:40:35.032Z,22.72
2023-04-29T15:43:02.165Z,22.74
2023-04-29T15:45:29.582Z,22.97
2023-04-29T15:47:56.870Z,22.87
2023-04-29T15:50:24.008Z,23.04
2023-04-29T15:52:55.812Z,23.14
2023-04-29T15:55:23.370Z,23.18
2023-04-29T15:57:51.476Z,23.04
2023-04-29T16:00:19.167Z,23.16
2023-04-29T16:02:46.653Z,22.80
2023-04-29T16:05:13.871Z,22.77
2023-04-29T16:07:40.996Z,22.59
2023-04-29T16:10:09.488Z,22.93
2023-04-29T16:12:37.127Z,22.52
2023-04-29T16:15:05.016Z,22.29
2023-04-29T16:17:32.611Z,21.94
2023-04-29T16:19:59.877Z,22.12
2023-04-29T16:22:28.022Z,22.00
2023-04-29T16:24:55.538Z,21.95
2023-04-29T16:27:22.697Z,21.47
2023-04-29T16:29:49.902Z,21.74
2023-04-29T16:32:17.289Z,21.98
2023-04-29T16:34:44.433Z,21.92
2023-04-29T16:37:12.674Z,21.95
2023-04-29T16:39:40.711Z,21.95
2023-04-29T16:42:07.880Z,22.04
2023-04-29T16:44:35.078Z,21.57
2023-04-29T16:47:03.123Z,21.77
2023-04-29T16:49:30.527Z,21.45
2023-04-29T16:51:58.014Z,21.85
2023-04-29T16:54:26.333Z,21.72
2023-04-29T16:56:53.726Z,21.80
2023-04-29T16:59:20.913Z,21.77
2023-04-29T17:01:48.400Z,21.72
2023-04-29T17:04:15.885Z,21.59
2023-04-29T17:06:43.464Z,21.56
2023-04-29T17:09:11.359Z,21.52
2023-04-29T17:11:38.501Z,21.40
2023-04-29T17:14:05.711Z,21.40
2023-04-29T17:16:33.268Z,21.32
2023-04-29T17:19:00.433Z,21.32
2023-04-29T17:21:30.636Z,21.12
2023-04-29T17:23:59.038Z,21.05
2023-04-29T17:26:26.595Z,21.05
2023-04-29T17:28:53.936Z,21.04
2023-04-29T17:31:25.547Z,20.93
2023-04-29T17:34:05.345Z,20.82
2023-04-29T17:36:33.371Z,20.74
2023-04-29T17:39:00.915Z,20.77
2023-04-29T17:41:28.558Z,20.59
2023-04-29T17:43:56.224Z,20.50
2023-04-29T17:46:23.962Z,20.42
2023-04-29T17:48:51.604Z,20.22
2023-04-29T17:51:19.141Z,20.16
2023-04-29T17:53:46.431Z,20.14
2023-04-29T17:56:13.955Z,19.88
2023-04-29T17:58:42.428Z,19.86
2023-04-29T18:01:12.035Z,19.80
2023-04-29T18:03:39.826Z,19.86
2023-04-29T18:06:07.485Z,19.77
2023-04-29T18:10:02.522Z,19.89
2023-04-29T18:12:30.151Z,19.89
2023-04-29T18:14:57.356Z,19.33
2023-04-29T18:17:24.643Z,19.18
2023-04-29T18:19:52.342Z,19.11
2023-04-29T18:22:19.718Z,19.10
2023-04-29T18:24:48.817Z,18.98
2023-04-29T18:27:16.475Z,18.91
2023-04-29T18:29:44.728Z,18.92
2023-04-29T18:32:12.073Z,18.84
2023-04-29T18:34:39.734Z,18.72
2023-04-29T18:37:07.386Z,18.70
2023-04-29T18:39:34.822Z,18.58
2023-04-29T18:42:04.168Z,18.59
2023-04-29T18:44:31.755Z,18.50
2023-04-29T18:46:59.092Z,18.44
2023-04-29T18:49:26.567Z,18.33
2023-04-29T18:51:53.717Z,17.70
2023-04-29T18:54:21.113Z,17.54
2023-04-29T18:56:50.021Z,17.49
2023-04-29T18:59:21.131Z,17.25
2023-04-29T19:01:49.155Z,17.51
2023-04-29T19:04:17.403Z,17.77
2023-04-29T19:06:45.015Z,17.69
2023-04-29T19:09:13.685Z,17.74
2023-04-29T19:11:41.718Z,17.66
2023-04-29T19:14:09.019Z,17.44
2023-04-29T19:16:37.320Z,17.31
2023-04-29T19:19:05.804Z,17.16
2023-04-29T19:21:34.059Z,17.05
2023-04-29T19:24:01.814Z,16.98
2023-04-29T19:26:31.683Z,17.45
2023-04-29T19:29:03.911Z,17.24
2023-04-29T19:31:31.850Z,16.81
2023-04-29T19:34:00.037Z,16.69
2023-04-29T19:36:27.388Z,16.38
2023-04-29T19:38:55.657Z,16.69
2023-04-29T19:41:24.118Z,16.39
2023-04-29T19:43:51.854Z,16.34
2023-04-29T19:46:19.641Z,16.11
2023-04-29T19:48:47.263Z,16.17
2023-04-29T19:51:15.596Z,16.53
2023-04-29T19:53:43.281Z,17.10
2023-04-29T19:56:10.707Z,17.09
2023-04-29T19:58:38.302Z,17.36
2023-04-29T20:01:06.230Z,16.53
2023-04-29T20:03:38.420Z,16.82
2023-04-29T20:06:05.808Z,17.15
2023-04-29T20:08:33.856Z,17.15
2023-04-29T20:11:02.612Z,17.25
2023-04-29T20:13:29.961Z,17.30
2023-04-29T20:15:57.190Z,16.69
2023-04-29T20:18:24.792Z,16.23
2023-04-29T20:20:52.071Z,16.09
2023-04-29T20:23:19.804Z,16.15
2023-04-29T20:25:47.558Z,15.84
2023-04-29T20:28:14.770Z,15.85
2023-04-29T20:30:41.918Z,15.40
2023-04-29T20:33:09.568Z,15.51
2023-04-29T20:35:36.790Z,15.30
2023-04-29T20:38:03.968Z,15.41
2023-04-29T20:40:32.644Z,15.92
2023-04-29T20:43:00.302Z,16.41
2023-04-29T20:45:27.596Z,16.49
2023-04-29T20:47:55.032Z,16.59
2023-04-29T20:50:22.734Z,16.55
2023-04-29T20:52:50.334Z,16.88
2023-04-29T20:55:18.822Z,17.30
2023-04-29T20:57:46.035Z,17.65
2023-04-29T21:00:14.245Z,17.45
2023-04-29T21:02:41.713Z,17.30
2023-04-29T21:05:10.209Z,17.20
2023-04-29T21:07:37.587Z,16.84
2023-04-29T21:10:05.195Z,17.04
2023-04-29T21:12:32.452Z,16.36
2023-04-29T21:14:59.622Z,15.91
2023-04-29T21:17:27.053Z,15.52
2023-04-29T21:19:54.500Z,15.17
2023-04-29T21:22:21.771Z,15.13
2023-04-29T21:24:49.198Z,14.77
2023-04-29T21:27:17.200Z,14.79
2023-04-29T21:29:44.382Z,14.88
2023-04-29T21:32:11.775Z,14.64
2023-04-29T21:34:39.005Z,15.04
2023-04-29T21:37:06.265Z,15.47
2023-04-29T21:39:33.778Z,15.53
2023-04-29T21:42:03.004Z,15.30
2023-04-29T21:44:30.516Z,15.13
2023-04-29T21:46:59.843Z,15.44
2023-04-29T21:49:27.793Z,15.06
2023-04-29T21:51:55.158Z,14.75
2023-04-29T21:54:22.707Z,14.66
2023-04-29T21:56:49.864Z,14.69
2023-04-29T21:59:17.158Z,14.93
2023-04-29T22:01:59.821Z,14.92
2023-04-29T22:04:30.185Z,15.34
2023-04-29T22:06:57.609Z,15.27
2023-04-29T22:09:24.765Z,15.72
2023-04-29T22:11:52.499Z,15.90
2023-04-29T22:14:19.664Z,16.28
2023-04-29T22:16:46.844Z,16.50
2023-04-29T22:19:14.311Z,15.27
2023-04-29T22:21:42.978Z,15.21
2023-04-29T22:24:10.265Z,15.25
2023-04-29T22:26:38.086Z,15.28
2023-04-29T22:29:05.288Z,14.74
2023-04-29T22:31:32.489Z,15.14
2023-04-29T22:34:00.000Z,14.75
2023-04-29T22:36:27.348Z,15.72
2023-04-29T22:38:54.471Z,16.25
2023-04-29T22:41:21.948Z,15.33
2023-04-29T22:43:49.112Z,15.56
2023-04-29T22:46:16.291Z,15.26
2023-04-29T22:48:43.831Z,15.49
2023-04-29T22:51:14.726Z,14.93
2023-04-29T22:53:43.446Z,14.78
2023-04-29T22:56:11.875Z,14.81
2023-04-29T22:58:39.587Z,14.84
2023-04-29T23:01:06.774Z,15.40
2023-04-29T23:03:34.316Z,15.00
2023-04-29T23:06:02.542Z,14.97
2023-04-29T23:08:29.923Z,14.19
2023-04-29T23:10:57.388Z,15.09
2023-04-29T23:13:24.524Z,14.98
2023-04-29T23:15:52.319Z,14.83
2023-04-29T23:18:19.827Z,14.11
2023-04-29T23:20:47.780Z,14.25
2023-04-29T23:23:14.957Z,14.05
2023-04-29T23:25:42.584Z,14.18
2023-04-29T23:28:09.765Z,13.86
2023-04-29T23:30:36.917Z,14.13
2023-04-29T23:33:04.379Z,14.81
2023-04-29T23:35:31.786Z,14.24
2023-04-29T23:37:59.146Z,14.22
2023-04-29T23:40:26.610Z,14.02
2023-04-29T23:42:53.886Z,14.62
2023-04-29T23:45:21.035Z,14.62
2023-04-29T23:47:48.534Z,14.40
2023-04-29T23:50:15.979Z,14.41
2023-04-29T23:52:43.148Z,14.44
2023-04-29T23:55:10.553Z,14.09
2023-04-29T23:57:37.749Z,14.08
